Terminal Aerodrome Forecast
Issued by NWS

Home | Current Version | Previous Version | Text Only | Print | Product List | Glossary On
Versions: 1 2 3 4 5 6 7 8 9 10 11 12 13 14 15 16
000
FTUS43 KICT 172333
TAFSLN
TAF
KSLN 172333Z 1800/1824 24005KT P6SM SKC
     FM181000 19008KT P6SM VCTS BKN080CB
     FM181500 20012KT P6SM BKN100
     FM182100 35010KT P6SM SCT250=

USA.gov is the U.S. government's official web portal to all federal, state and local government web resources and services.